createdAt,value
2022-10-16T00:01:26.563Z,15.80
2022-10-16T00:03:55.061Z,15.80
2022-10-16T00:06:25.312Z,15.70
2022-10-16T00:08:53.746Z,15.70
2022-10-16T00:11:23.360Z,15.70
2022-10-16T00:13:53.121Z,15.70
2022-10-16T00:16:23.700Z,15.70
2022-10-16T00:18:53.632Z,15.80
2022-10-16T00:21:24.136Z,15.80
2022-10-16T00:23:54.131Z,15.80
2022-10-16T00:26:22.674Z,15.80
2022-10-16T00:28:51.820Z,15.80
2022-10-16T00:31:22.424Z,15.80
2022-10-16T00:33:53.661Z,15.80
2022-10-16T00:36:23.956Z,15.80
2022-10-16T00:38:54.898Z,15.80
2022-10-16T00:41:25.007Z,15.80
2022-10-16T00:43:54.734Z,15.70
2022-10-16T00:46:25.515Z,15.80
2022-10-16T00:49:01.727Z,15.80
2022-10-16T00:51:34.786Z,15.80
2022-10-16T00:54:04.431Z,15.80
2022-10-16T00:56:32.607Z,15.80
2022-10-16T00:59:03.855Z,15.80
2022-10-16T01:01:32.145Z,15.80
2022-10-16T01:04:01.789Z,15.80
2022-10-16T01:06:37.592Z,15.80
2022-10-16T01:09:23.989Z,15.70
2022-10-16T01:12:03.031Z,15.80
2022-10-16T01:14:39.597Z,15.70
2022-10-16T01:17:14.642Z,15.70
2022-10-16T01:20:07.757Z,15.70
2022-10-16T01:22:46.721Z,15.70
2022-10-16T01:25:21.524Z,15.70
2022-10-16T01:27:52.226Z,15.70
2022-10-16T01:30:25.184Z,15.70
2022-10-16T01:32:58.460Z,15.70
2022-10-16T01:35:32.381Z,15.70
2022-10-16T01:38:05.648Z,15.70
2022-10-16T01:40:36.851Z,15.60
2022-10-16T01:43:10.346Z,15.60
2022-10-16T01:45:39.135Z,15.60
2022-10-16T01:48:10.748Z,15.60
2022-10-16T01:50:43.612Z,15.60
2022-10-16T01:53:15.045Z,15.60
2022-10-16T01:55:46.869Z,15.50
2022-10-16T01:58:17.704Z,15.50
2022-10-16T02:00:48.757Z,15.50
2022-10-16T02:03:20.703Z,15.50
2022-10-16T02:05:51.269Z,15.50
2022-10-16T02:08:20.020Z,15.50
2022-10-16T02:10:48.199Z,15.50
2022-10-16T02:13:23.793Z,15.50
2022-10-16T02:15:57.736Z,15.50
2022-10-16T02:18:30.323Z,15.50
2022-10-16T02:21:01.915Z,15.50
2022-10-16T02:23:37.842Z,15.60
2022-10-16T02:26:09.629Z,15.60
2022-10-16T02:28:44.444Z,15.60
2022-10-16T02:31:16.035Z,15.60
2022-10-16T02:33:46.405Z,15.60
2022-10-16T02:36:15.078Z,15.60
2022-10-16T02:38:43.643Z,15.60
2022-10-16T02:41:12.529Z,15.60
2022-10-16T02:43:42.042Z,15.60
2022-10-16T02:46:10.969Z,15.60
2022-10-16T02:48:40.239Z,15.60
2022-10-16T02:51:08.899Z,15.60
2022-10-16T02:53:42.405Z,15.60
2022-10-16T02:56:10.604Z,15.60
2022-10-16T02:58:39.655Z,15.60
2022-10-16T03:01:09.881Z,15.70
2022-10-16T03:03:38.200Z,15.60
2022-10-16T03:06:07.164Z,15.60
2022-10-16T03:08:35.332Z,15.60
2022-10-16T03:11:03.446Z,15.70
2022-10-16T03:13:32.997Z,15.70
2022-10-16T03:16:01.449Z,15.70
2022-10-16T03:18:31.139Z,15.70
2022-10-16T03:20:59.228Z,15.70
2022-10-16T03:23:27.559Z,15.70
2022-10-16T03:25:55.732Z,15.70
2022-10-16T03:28:24.651Z,15.70
2022-10-16T03:30:52.900Z,15.70
2022-10-16T03:33:21.423Z,15.70
2022-10-16T03:35:56.114Z,15.70
2022-10-16T03:38:24.606Z,15.70
2022-10-16T03:40:53.143Z,15.70
2022-10-16T03:43:21.496Z,15.70
2022-10-16T03:45:49.610Z,15.70
2022-10-16T03:48:17.977Z,15.70
2022-10-16T03:50:47.025Z,15.70
2022-10-16T03:53:17.833Z,15.70
2022-10-16T03:55:46.712Z,15.70
2022-10-16T03:58:15.089Z,15.70
2022-10-16T04:00:44.858Z,15.70
2022-10-16T04:03:13.441Z,15.60
2022-10-16T04:05:42.419Z,15.70
2022-10-16T04:08:10.576Z,15.70
2022-10-16T04:10:40.255Z,15.70
2022-10-16T04:13:08.392Z,15.70
2022-10-16T04:15:36.959Z,15.70
2022-10-16T04:18:05.584Z,15.70
2022-10-16T04:20:34.137Z,15.60
2022-10-16T04:23:02.508Z,15.60
2022-10-16T04:25:30.658Z,15.60
2022-10-16T04:28:00.227Z,15.60
2022-10-16T04:30:28.349Z,15.60
2022-10-16T04:32:56.667Z,15.70
2022-10-16T04:35:24.834Z,15.70
2022-10-16T04:37:53.052Z,15.70
2022-10-16T04:40:21.327Z,15.70
2022-10-16T04:42:49.503Z,15.70
2022-10-16T04:45:19.368Z,15.70
2022-10-16T04:47:47.559Z,15.70
2022-10-16T04:50:15.648Z,15.70
2022-10-16T04:52:43.818Z,15.60
2022-10-16T04:55:11.979Z,15.70
2022-10-16T04:57:40.197Z,15.70
2022-10-16T05:00:09.901Z,15.70
2022-10-16T05:02:39.739Z,15.70
2022-10-16T05:05:08.862Z,15.80
2022-10-16T05:07:37.791Z,15.70
2022-10-16T05:10:07.014Z,15.80
2022-10-16T05:12:35.293Z,15.80
2022-10-16T05:15:03.478Z,15.80
2022-10-16T05:17:31.704Z,15.80
2022-10-16T05:20:01.261Z,15.80
2022-10-16T05:22:29.786Z,15.80
2022-10-16T05:24:58.097Z,15.80
2022-10-16T05:27:26.706Z,15.70
2022-10-16T05:29:55.222Z,15.70
2022-10-16T05:32:26.438Z,15.70
2022-10-16T05:34:54.724Z,15.70
2022-10-16T05:37:25.162Z,15.70
2022-10-16T05:39:53.511Z,15.70
2022-10-16T05:42:23.058Z,15.70
2022-10-16T05:44:51.177Z,15.70
2022-10-16T05:47:21.918Z,15.70
2022-10-16T05:49:50.070Z,15.80
2022-10-16T05:52:18.570Z,15.80
2022-10-16T05:54:48.243Z,15.70
2022-10-16T05:57:16.465Z,15.70
2022-10-16T05:59:44.752Z,15.70
2022-10-16T06:02:15.315Z,15.70
2022-10-16T06:04:43.490Z,15.60
2022-10-16T06:07:11.830Z,15.60
2022-10-16T06:09:40.064Z,15.60
2022-10-16T06:12:09.615Z,15.60
2022-10-16T06:14:37.883Z,15.60
2022-10-16T06:17:06.105Z,15.60
2022-10-16T06:19:34.212Z,15.60
2022-10-16T06:22:03.642Z,15.60
2022-10-16T06:24:31.706Z,15.60
2022-10-16T06:26:59.991Z,15.60
2022-10-16T06:29:29.576Z,15.60
2022-10-16T06:31:57.899Z,15.70
2022-10-16T06:34:26.118Z,15.70
2022-10-16T06:36:54.317Z,15.70
2022-10-16T06:39:22.581Z,15.70
2022-10-16T06:41:50.913Z,15.70
2022-10-16T06:44:19.087Z,15.70
2022-10-16T06:46:48.732Z,15.70
2022-10-16T06:49:22.430Z,15.80
2022-10-16T06:51:50.835Z,15.80
2022-10-16T06:54:19.899Z,15.80
2022-10-16T06:56:48.164Z,15.80
2022-10-16T06:59:16.247Z,15.90
2022-10-16T07:01:44.523Z,15.90
2022-10-16T07:04:14.327Z,15.80
2022-10-16T07:06:42.631Z,15.80
2022-10-16T07:09:15.128Z,15.80
2022-10-16T07:11:43.410Z,15.80
2022-10-16T07:14:18.662Z,15.80
2022-10-16T07:16:47.115Z,15.80
2022-10-16T07:19:18.675Z,15.80
2022-10-16T07:21:46.963Z,15.80
2022-10-16T07:24:16.947Z,15.90
2022-10-16T07:26:47.187Z,15.90
2022-10-16T07:29:16.488Z,15.90
2022-10-16T07:31:45.825Z,15.90
2022-10-16T07:34:15.600Z,15.90
2022-10-16T07:36:45.580Z,15.90
2022-10-16T07:39:13.904Z,15.90
2022-10-16T07:41:42.162Z,15.90
2022-10-16T07:44:10.328Z,15.90
2022-10-16T07:46:38.606Z,15.90
2022-10-16T07:49:06.706Z,15.90
2022-10-16T07:51:34.999Z,15.90
2022-10-16T07:54:05.094Z,15.90
2022-10-16T07:56:34.199Z,16.00
2022-10-16T07:59:02.922Z,16.00
2022-10-16T08:01:31.271Z,16.00
2022-10-16T08:03:59.557Z,15.90
2022-10-16T08:06:28.309Z,15.90
2022-10-16T08:08:57.758Z,15.90
2022-10-16T08:11:27.745Z,15.90
2022-10-16T08:13:55.944Z,15.90
2022-10-16T08:16:24.211Z,15.90
2022-10-16T08:18:52.844Z,15.90
2022-10-16T08:21:24.068Z,15.90
2022-10-16T08:23:57.071Z,15.90
2022-10-16T08:26:28.720Z,15.90
2022-10-16T08:28:57.276Z,16.00
2022-10-16T08:31:27.367Z,16.00
2022-10-16T08:33:55.633Z,16.00
2022-10-16T08:36:23.933Z,16.10
2022-10-16T08:38:55.086Z,16.10
2022-10-16T08:41:48.425Z,16.10
2022-10-16T08:44:49.102Z,16.10
2022-10-16T08:47:22.336Z,16.20
2022-10-16T08:50:01.303Z,16.20
2022-10-16T08:52:33.283Z,16.20
2022-10-16T08:55:01.626Z,16.20
2022-10-16T08:57:29.793Z,16.20
2022-10-16T09:00:02.467Z,16.20
2022-10-16T09:02:37.598Z,16.20
2022-10-16T09:05:31.883Z,16.20
2022-10-16T09:08:13.275Z,16.20
2022-10-16T09:10:50.318Z,16.20
2022-10-16T09:13:25.605Z,16.20
2022-10-16T09:16:02.138Z,16.20
2022-10-16T09:18:41.047Z,16.20
2022-10-16T09:21:16.771Z,16.20
2022-10-16T09:23:45.880Z,16.20
2022-10-16T09:26:16.147Z,16.30
2022-10-16T09:28:44.976Z,16.30
2022-10-16T09:31:22.383Z,16.30
2022-10-16T09:33:56.289Z,16.40
2022-10-16T09:36:27.651Z,16.40
2022-10-16T09:39:06.193Z,16.40
2022-10-16T09:41:38.466Z,16.40
2022-10-16T09:44:18.963Z,16.40
2022-10-16T09:46:48.689Z,16.40
2022-10-16T09:49:27.302Z,16.40
2022-10-16T09:52:06.093Z,16.50
2022-10-16T09:54:34.555Z,16.60
2022-10-16T09:57:10.260Z,16.70
2022-10-16T09:59:49.450Z,16.80
2022-10-16T10:02:21.692Z,16.90
2022-10-16T10:04:58.215Z,16.90
2022-10-16T10:07:29.359Z,16.90
2022-10-16T10:10:01.161Z,16.90
2022-10-16T10:12:33.543Z,16.90
2022-10-16T10:15:08.706Z,17.00
2022-10-16T10:17:47.287Z,17.00
2022-10-16T10:20:26.672Z,17.00
2022-10-16T10:22:56.509Z,17.00
2022-10-16T10:25:41.389Z,17.00
2022-10-16T10:28:21.007Z,17.10
2022-10-16T10:30:58.566Z,17.10
2022-10-16T10:33:38.488Z,17.20
2022-10-16T10:36:19.256Z,17.30
2022-10-16T10:38:52.723Z,17.30
2022-10-16T10:41:39.214Z,17.40
2022-10-16T10:44:18.559Z,17.50
2022-10-16T10:46:53.188Z,17.50
2022-10-16T10:49:44.193Z,17.50
2022-10-16T10:52:37.159Z,17.50
2022-10-16T10:55:18.033Z,17.40
2022-10-16T10:58:00.068Z,17.50
2022-10-16T11:00:44.627Z,17.50
2022-10-16T11:03:22.399Z,17.50
2022-10-16T11:05:53.612Z,17.50
2022-10-16T11:08:30.028Z,17.50
2022-10-16T11:11:03.157Z,17.60
2022-10-16T11:13:36.052Z,17.60
2022-10-16T11:16:15.254Z,17.60
2022-10-16T11:18:54.518Z,17.70
2022-10-16T11:21:42.652Z,17.80
2022-10-16T11:24:19.014Z,17.90
2022-10-16T11:30:10.898Z,18.30
2022-10-16T11:32:48.441Z,18.60
2022-10-16T11:35:23.594Z,18.70
2022-10-16T11:37:59.242Z,18.80
2022-10-16T11:40:34.465Z,18.80
2022-10-16T11:43:12.619Z,18.80
2022-10-16T11:45:44.713Z,18.80
2022-10-16T11:48:23.754Z,18.80
2022-10-16T11:50:55.435Z,18.70
2022-10-16T11:53:36.894Z,18.70
2022-10-16T11:56:07.301Z,18.70
2022-10-16T11:59:03.476Z,18.70
2022-10-16T12:01:44.428Z,18.60
2022-10-16T12:04:23.589Z,18.70
2022-10-16T12:06:57.046Z,18.70
2022-10-16T12:09:29.392Z,18.80
2022-10-16T12:12:30.307Z,18.90
2022-10-16T12:15:25.958Z,18.90
2022-10-16T12:18:06.703Z,19.00
2022-10-16T12:20:37.521Z,19.10
2022-10-16T12:24:13.081Z,19.00
2022-10-16T12:26:52.167Z,19.10
2022-10-16T12:29:38.428Z,19.20
2022-10-16T12:35:23.589Z,19.30
2022-10-16T12:41:43.382Z,19.40
2022-10-16T12:44:38.441Z,19.40
2022-10-16T12:51:24.812Z,19.40
2022-10-16T12:54:04.456Z,19.30
2022-10-16T12:56:53.635Z,19.20
2022-10-16T12:59:41.198Z,19.10
2022-10-16T13:02:33.725Z,19.10
2022-10-16T13:05:17.063Z,19.00
2022-10-16T13:08:01.848Z,19.00
2022-10-16T13:10:37.270Z,19.00
2022-10-16T13:13:29.166Z,19.00
2022-10-16T13:16:12.826Z,18.90
2022-10-16T13:18:50.759Z,18.90
2022-10-16T13:21:35.799Z,18.80
2022-10-16T13:24:14.170Z,18.90
2022-10-16T13:26:48.867Z,18.90
2022-10-16T13:29:17.427Z,18.80
2022-10-16T13:31:52.502Z,18.80
2022-10-16T13:34:54.577Z,18.80
2022-10-16T13:37:24.766Z,18.80
2022-10-16T13:39:53.611Z,18.80
2022-10-16T13:42:28.259Z,18.80
2022-10-16T13:44:58.249Z,18.80
2022-10-16T13:47:28.043Z,18.80
2022-10-16T13:50:05.631Z,18.80
2022-10-16T13:52:34.551Z,18.70
2022-10-16T13:55:07.039Z,18.80
2022-10-16T13:57:35.165Z,18.80
2022-10-16T14:00:19.376Z,18.80
2022-10-16T14:02:52.836Z,18.80
2022-10-16T14:05:25.765Z,18.80
2022-10-16T14:07:55.918Z,18.70
2022-10-16T14:10:27.463Z,18.70
2022-10-16T14:13:01.548Z,18.70
2022-10-16T14:15:32.496Z,18.70
2022-10-16T14:18:01.399Z,18.80
2022-10-16T14:20:34.304Z,18.80
2022-10-16T14:23:53.113Z,18.80
2022-10-16T14:26:24.226Z,18.90
2022-10-16T14:29:06.044Z,18.90
2022-10-16T14:31:37.510Z,18.90
2022-10-16T14:34:06.112Z,18.90
2022-10-16T14:36:36.685Z,18.90
2022-10-16T14:39:21.758Z,18.90
2022-10-16T14:41:51.614Z,18.90
2022-10-16T14:44:21.766Z,18.90
2022-10-16T14:47:00.713Z,18.90
2022-10-16T14:49:33.492Z,18.90
2022-10-16T14:52:28.039Z,18.90
2022-10-16T14:55:02.955Z,18.90
2022-10-16T14:57:41.538Z,18.90
2022-10-16T15:00:18.038Z,18.90
2022-10-16T15:02:49.943Z,19.00
2022-10-16T15:05:20.714Z,18.90
2022-10-16T15:07:51.366Z,18.90
2022-10-16T15:10:23.495Z,18.80
2022-10-16T15:13:02.535Z,18.90
2022-10-16T15:15:36.537Z,18.80
2022-10-16T15:29:49.092Z,18.60
2022-10-16T16:02:18.251Z,18.50
2022-10-16T16:04:54.342Z,18.40
2022-10-16T16:07:25.172Z,18.40
2022-10-16T16:10:14.029Z,18.40
2022-10-16T16:13:11.419Z,18.40
2022-10-16T16:15:50.908Z,18.30
2022-10-16T16:18:22.142Z,18.30
2022-10-16T16:21:03.354Z,18.30
2022-10-16T16:24:09.771Z,18.30
2022-10-16T16:26:40.842Z,18.30
2022-10-16T16:29:13.571Z,18.40
2022-10-16T16:34:36.230Z,18.40
2022-10-16T16:37:04.576Z,18.40
2022-10-16T16:39:33.127Z,18.40
2022-10-16T16:42:12.975Z,18.40
2022-10-16T16:44:44.340Z,18.40
2022-10-16T16:50:14.278Z,18.30
2022-10-16T16:52:42.523Z,18.20
2022-10-16T16:55:13.074Z,18.10
2022-10-16T16:57:41.214Z,18.10
2022-10-16T17:00:34.503Z,18.10
2022-10-16T17:03:08.357Z,18.10
2022-10-16T17:05:41.143Z,18.10
2022-10-16T17:14:44.395Z,18.20
2022-10-16T17:21:46.415Z,18.20
2022-10-16T17:32:11.919Z,18.20
2022-10-16T17:35:33.943Z,18.20
2022-10-16T17:38:03.635Z,18.10
2022-10-16T17:40:33.140Z,18.10
2022-10-16T17:43:02.226Z,18.20
2022-10-16T17:45:54.540Z,18.10
2022-10-16T17:48:29.509Z,18.10
2022-10-16T17:50:58.476Z,18.10
2022-10-16T17:53:28.881Z,18.10
2022-10-16T17:55:59.486Z,18.00
2022-10-16T18:01:01.946Z,18.00
2022-10-16T18:03:44.977Z,17.90
2022-10-16T18:06:52.399Z,17.90
2022-10-16T18:09:33.088Z,17.90
2022-10-16T18:35:09.055Z,17.90
2022-10-16T18:37:38.044Z,17.90
2022-10-16T18:40:07.153Z,17.90
2022-10-16T18:42:35.316Z,17.90
2022-10-16T18:55:28.954Z,17.80
2022-10-16T18:57:58.940Z,17.80
2022-10-16T19:00:28.449Z,17.80
2022-10-16T19:03:01.860Z,17.80
2022-10-16T19:05:54.886Z,17.80
2022-10-16T19:12:28.303Z,17.70
2022-10-16T19:14:00.002Z,17.80
2022-10-16T19:15:10.021Z,17.70
2022-10-16T19:17:49.204Z,17.70
2022-10-16T19:20:34.125Z,17.70
2022-10-16T19:27:21.033Z,17.70
2022-10-16T19:33:49.053Z,17.70
2022-10-16T19:36:32.591Z,17.80
2022-10-16T19:39:02.394Z,17.80
2022-10-16T19:45:02.643Z,17.80
2022-10-16T20:27:45.399Z,17.40
2022-10-16T20:30:13.769Z,17.40
2022-10-16T20:32:42.353Z,17.30
2022-10-16T20:35:11.228Z,17.30
2022-10-16T20:37:48.505Z,17.30
2022-10-16T20:40:58.007Z,17.30
2022-10-16T20:43:38.492Z,17.30
2022-10-16T20:46:26.892Z,17.20
2022-10-16T20:49:10.389Z,17.20
2022-10-16T20:55:04.409Z,17.10
2022-10-16T20:57:39.165Z,17.00
2022-10-16T21:00:18.689Z,17.10
2022-10-16T21:03:05.290Z,17.10
2022-10-16T21:06:02.432Z,17.10
2022-10-16T21:08:40.194Z,17.00
2022-10-16T21:11:23.261Z,17.00
2022-10-16T21:14:02.009Z,17.00
2022-10-16T21:16:32.639Z,17.00
2022-10-16T21:23:23.234Z,16.90
2022-10-16T21:26:05.809Z,16.90
2022-10-16T21:28:34.741Z,16.80
2022-10-16T21:31:13.290Z,16.80
2022-10-16T21:33:48.094Z,16.80
2022-10-16T21:36:28.571Z,16.80
2022-10-16T21:39:01.910Z,16.80
2022-10-16T21:41:32.936Z,16.80
2022-10-16T21:44:01.996Z,16.90
2022-10-16T21:46:34.214Z,16.90
2022-10-16T21:49:06.311Z,16.90
2022-10-16T21:51:37.651Z,16.90
2022-10-16T21:54:07.751Z,16.90
2022-10-16T21:56:35.947Z,16.90
2022-10-16T21:59:04.376Z,16.90
2022-10-16T22:01:33.045Z,16.90
2022-10-16T22:04:01.848Z,16.90
2022-10-16T22:06:34.224Z,16.90
2022-10-16T22:09:02.746Z,16.90
2022-10-16T22:11:36.779Z,16.80
2022-10-16T22:14:06.676Z,16.80
2022-10-16T22:16:37.111Z,16.80
2022-10-16T22:19:09.922Z,16.80
2022-10-16T22:21:48.865Z,16.80
2022-10-16T22:27:01.534Z,16.80
2022-10-16T22:29:30.029Z,16.70
2022-10-16T22:32:03.840Z,16.70
2022-10-16T22:34:32.163Z,16.70
2022-10-16T22:37:01.760Z,16.70
2022-10-16T22:39:30.183Z,16.70
2022-10-16T22:42:18.773Z,16.60
2022-10-16T22:45:00.568Z,16.60
2022-10-16T22:55:58.082Z,16.50
2022-10-16T22:58:27.789Z,16.50
2022-10-16T23:01:01.186Z,16.40
2022-10-16T23:11:04.496Z,16.30
2022-10-16T23:46:04.247Z,16.00
2022-10-16T23:48:32.759Z,16.00
2022-10-16T23:51:01.128Z,15.90
2022-10-16T23:53:29.346Z,15.90
2022-10-16T23:55:57.576Z,15.80
2022-10-16T23:58:28.695Z,15.70
